sensor_id;sensor_type;location;lat;lon;timestamp;P1;durP1;ratioP1;P2;durP2;ratioP2
23322;SDS011;11833;52.554;13.554;2023-05-02T00:01:28;12.45;;;6.40;;
23322;SDS011;11833;52.554;13.554;2023-05-02T00:03:54;12.43;;;7.88;;
23322;SDS011;11833;52.554;13.554;2023-05-02T00:06:20;9.25;;;6.30;;
23322;SDS011;11833;52.554;13.554;2023-05-02T00:08:47;13.93;;;6.63;;
23322;SDS011;11833;52.554;13.554;2023-05-02T00:11:13;13.45;;;8.00;;
23322;SDS011;11833;52.554;13.554;2023-05-02T00:13:39;10.68;;;7.18;;
23322;SDS011;11833;52.554;13.554;2023-05-02T00:16:05;13.43;;;6.03;;
23322;SDS011;11833;52.554;13.554;2023-05-02T00:18:31;9.57;;;5.60;;
23322;SDS011;11833;52.554;13.554;2023-05-02T00:20:57;11.50;;;6.88;;
23322;SDS011;11833;52.554;13.554;2023-05-02T00:23:22;11.00;;;6.15;;
23322;SDS011;11833;52.554;13.554;2023-05-02T00:25:48;11.88;;;6.22;;
23322;SDS011;11833;52.554;13.554;2023-05-02T00:28:14;10.98;;;6.13;;
23322;SDS011;11833;52.554;13.554;2023-05-02T00:30:44;10.10;;;5.30;;
23322;SDS011;11833;52.554;13.554;2023-05-02T00:33:10;10.73;;;5.97;;
23322;SDS011;11833;52.554;13.554;2023-05-02T00:35:38;9.73;;;5.90;;
23322;SDS011;11833;52.554;13.554;2023-05-02T00:38:04;9.23;;;6.53;;
23322;SDS011;11833;52.554;13.554;2023-05-02T00:40:30;9.55;;;6.00;;
23322;SDS011;11833;52.554;13.554;2023-05-02T00:42:56;12.20;;;6.05;;
23322;SDS011;11833;52.554;13.554;2023-05-02T00:45:22;12.45;;;6.05;;
23322;SDS011;11833;52.554;13.554;2023-05-02T00:47:48;8.75;;;6.18;;
23322;SDS011;11833;52.554;13.554;2023-05-02T00:50:15;18.75;;;6.13;;
23322;SDS011;11833;52.554;13.554;2023-05-02T00:52:42;10.65;;;5.90;;
23322;SDS011;11833;52.554;13.554;2023-05-02T00:55:08;9.88;;;5.53;;
23322;SDS011;11833;52.554;13.554;2023-05-02T00:57:33;9.75;;;5.63;;
23322;SDS011;11833;52.554;13.554;2023-05-02T00:59:59;7.90;;;5.97;;
23322;SDS011;11833;52.554;13.554;2023-05-02T01:05:24;9.38;;;5.35;;
23322;SDS011;11833;52.554;13.554;2023-05-02T01:08:12;10.85;;;5.38;;
23322;SDS011;11833;52.554;13.554;2023-05-02T01:11:01;9.32;;;5.57;;
23322;SDS011;11833;52.554;13.554;2023-05-02T01:13:39;9.43;;;5.50;;
23322;SDS011;11833;52.554;13.554;2023-05-02T01:16:10;8.13;;;5.15;;
23322;SDS011;11833;52.554;13.554;2023-05-02T01:18:37;9.52;;;5.63;;
23322;SDS011;11833;52.554;13.554;2023-05-02T01:21:07;8.52;;;5.75;;
23322;SDS011;11833;52.554;13.554;2023-05-02T01:24:18;11.57;;;5.47;;
23322;SDS011;11833;52.554;13.554;2023-05-02T01:26:35;8.63;;;5.60;;
23322;SDS011;11833;52.554;13.554;2023-05-02T01:29:26;9.15;;;5.38;;
23322;SDS011;11833;52.554;13.554;2023-05-02T01:31:53;7.30;;;5.15;;
23322;SDS011;11833;52.554;13.554;2023-05-02T01:34:22;7.57;;;5.07;;
23322;SDS011;11833;52.554;13.554;2023-05-02T01:36:50;8.60;;;4.90;;
23322;SDS011;11833;52.554;13.554;2023-05-02T01:39:18;8.77;;;5.10;;
23322;SDS011;11833;52.554;13.554;2023-05-02T01:41:47;9.68;;;5.10;;
23322;SDS011;11833;52.554;13.554;2023-05-02T01:44:16;6.93;;;5.03;;
23322;SDS011;11833;52.554;13.554;2023-05-02T01:46:46;11.48;;;4.60;;
23322;SDS011;11833;52.554;13.554;2023-05-02T01:49:13;5.45;;;4.13;;
23322;SDS011;11833;52.554;13.554;2023-05-02T01:51:42;8.30;;;4.65;;
23322;SDS011;11833;52.554;13.554;2023-05-02T01:54:12;5.72;;;3.85;;
23322;SDS011;11833;52.554;13.554;2023-05-02T01:56:41;6.28;;;4.13;;
23322;SDS011;11833;52.554;13.554;2023-05-02T01:59:08;5.85;;;4.25;;
23322;SDS011;11833;52.554;13.554;2023-05-02T02:01:37;5.25;;;3.60;;
23322;SDS011;11833;52.554;13.554;2023-05-02T02:04:04;4.90;;;3.55;;
23322;SDS011;11833;52.554;13.554;2023-05-02T02:06:33;7.68;;;3.60;;
23322;SDS011;11833;52.554;13.554;2023-05-02T02:09:00;6.43;;;3.70;;
23322;SDS011;11833;52.554;13.554;2023-05-02T02:11:34;8.90;;;3.97;;
23322;SDS011;11833;52.554;13.554;2023-05-02T02:14:13;7.57;;;3.45;;
23322;SDS011;11833;52.554;13.554;2023-05-02T02:16:49;5.00;;;3.35;;
23322;SDS011;11833;52.554;13.554;2023-05-02T02:19:19;6.45;;;3.10;;
23322;SDS011;11833;52.554;13.554;2023-05-02T02:21:47;7.75;;;3.72;;
23322;SDS011;11833;52.554;13.554;2023-05-02T02:24:15;5.10;;;3.65;;
23322;SDS011;11833;52.554;13.554;2023-05-02T02:26:43;4.55;;;3.45;;
23322;SDS011;11833;52.554;13.554;2023-05-02T02:29:10;5.93;;;3.22;;
23322;SDS011;11833;52.554;13.554;2023-05-02T02:31:36;9.98;;;3.53;;
23322;SDS011;11833;52.554;13.554;2023-05-02T02:34:03;5.40;;;3.42;;
23322;SDS011;11833;52.554;13.554;2023-05-02T02:36:32;4.22;;;3.42;;
23322;SDS011;11833;52.554;13.554;2023-05-02T02:39:23;8.70;;;3.40;;
23322;SDS011;11833;52.554;13.554;2023-05-02T02:42:31;5.35;;;3.08;;
23322;SDS011;11833;52.554;13.554;2023-05-02T02:45:17;3.97;;;2.40;;
23322;SDS011;11833;52.554;13.554;2023-05-02T02:49:00;5.72;;;3.35;;
23322;SDS011;11833;52.554;13.554;2023-05-02T02:51:10;5.40;;;2.60;;
23322;SDS011;11833;52.554;13.554;2023-05-02T02:56:39;8.82;;;3.75;;
23322;SDS011;11833;52.554;13.554;2023-05-02T02:59:41;3.60;;;2.95;;
23322;SDS011;11833;52.554;13.554;2023-05-02T03:02:06;5.40;;;2.85;;
23322;SDS011;11833;52.554;13.554;2023-05-02T03:04:34;7.53;;;3.60;;
23322;SDS011;11833;52.554;13.554;2023-05-02T03:07:05;8.00;;;3.05;;
23322;SDS011;11833;52.554;13.554;2023-05-02T03:09:44;4.93;;;2.83;;
23322;SDS011;11833;52.554;13.554;2023-05-02T03:12:12;8.25;;;3.55;;
23322;SDS011;11833;52.554;13.554;2023-05-02T03:14:38;5.13;;;3.58;;
23322;SDS011;11833;52.554;13.554;2023-05-02T03:17:05;3.45;;;3.08;;
23322;SDS011;11833;52.554;13.554;2023-05-02T03:19:33;4.18;;;3.10;;
23322;SDS011;11833;52.554;13.554;2023-05-02T03:21:59;7.35;;;3.55;;
23322;SDS011;11833;52.554;13.554;2023-05-02T03:24:25;6.97;;;2.90;;
23322;SDS011;11833;52.554;13.554;2023-05-02T03:26:54;5.57;;;2.78;;
23322;SDS011;11833;52.554;13.554;2023-05-02T03:29:21;6.20;;;3.25;;
23322;SDS011;11833;52.554;13.554;2023-05-02T03:31:47;5.90;;;3.35;;
23322;SDS011;11833;52.554;13.554;2023-05-02T03:34:13;5.68;;;3.42;;
23322;SDS011;11833;52.554;13.554;2023-05-02T03:36:38;8.25;;;3.50;;
23322;SDS011;11833;52.554;13.554;2023-05-02T03:39:04;5.13;;;3.63;;
23322;SDS011;11833;52.554;13.554;2023-05-02T03:41:30;4.85;;;3.42;;
23322;SDS011;11833;52.554;13.554;2023-05-02T03:43:56;8.05;;;3.28;;
23322;SDS011;11833;52.554;13.554;2023-05-02T03:46:22;5.78;;;4.07;;
23322;SDS011;11833;52.554;13.554;2023-05-02T03:48:48;6.90;;;3.60;;
23322;SDS011;11833;52.554;13.554;2023-05-02T03:51:14;4.63;;;3.00;;
23322;SDS011;11833;52.554;13.554;2023-05-02T03:53:40;5.10;;;3.42;;
23322;SDS011;11833;52.554;13.554;2023-05-02T03:56:06;6.05;;;3.00;;
23322;SDS011;11833;52.554;13.554;2023-05-02T03:58:32;4.15;;;2.97;;
23322;SDS011;11833;52.554;13.554;2023-05-02T04:01:00;5.60;;;2.80;;
23322;SDS011;11833;52.554;13.554;2023-05-02T04:03:26;4.20;;;2.70;;
23322;SDS011;11833;52.554;13.554;2023-05-02T04:05:52;7.28;;;3.20;;
23322;SDS011;11833;52.554;13.554;2023-05-02T04:08:18;6.05;;;2.70;;
23322;SDS011;11833;52.554;13.554;2023-05-02T04:10:44;4.30;;;2.47;;
23322;SDS011;11833;52.554;13.554;2023-05-02T04:13:10;5.22;;;2.50;;
23322;SDS011;11833;52.554;13.554;2023-05-02T04:15:36;4.30;;;2.10;;
23322;SDS011;11833;52.554;13.554;2023-05-02T04:18:02;3.38;;;2.03;;
23322;SDS011;11833;52.554;13.554;2023-05-02T04:20:28;6.13;;;3.28;;
23322;SDS011;11833;52.554;13.554;2023-05-02T04:22:54;5.10;;;2.92;;
23322;SDS011;11833;52.554;13.554;2023-05-02T04:25:20;5.82;;;2.90;;
23322;SDS011;11833;52.554;13.554;2023-05-02T04:27:45;4.65;;;2.67;;
23322;SDS011;11833;52.554;13.554;2023-05-02T04:30:11;3.88;;;2.33;;
23322;SDS011;11833;52.554;13.554;2023-05-02T04:32:37;6.30;;;2.55;;
23322;SDS011;11833;52.554;13.554;2023-05-02T04:35:03;5.70;;;3.00;;
23322;SDS011;11833;52.554;13.554;2023-05-02T04:37:30;6.15;;;2.50;;
23322;SDS011;11833;52.554;13.554;2023-05-02T04:39:56;4.13;;;2.58;;
23322;SDS011;11833;52.554;13.554;2023-05-02T04:42:22;5.18;;;2.90;;
23322;SDS011;11833;52.554;13.554;2023-05-02T04:44:48;7.03;;;2.90;;
23322;SDS011;11833;52.554;13.554;2023-05-02T04:47:14;6.13;;;2.55;;
23322;SDS011;11833;52.554;13.554;2023-05-02T04:49:40;6.20;;;3.10;;
23322;SDS011;11833;52.554;13.554;2023-05-02T04:52:07;6.63;;;3.83;;
23322;SDS011;11833;52.554;13.554;2023-05-02T04:54:34;4.60;;;2.53;;
23322;SDS011;11833;52.554;13.554;2023-05-02T04:57:00;7.13;;;3.53;;
23322;SDS011;11833;52.554;13.554;2023-05-02T04:59:27;7.20;;;2.42;;
23322;SDS011;11833;52.554;13.554;2023-05-02T05:01:54;3.30;;;2.70;;
23322;SDS011;11833;52.554;13.554;2023-05-02T05:04:21;3.83;;;2.58;;
23322;SDS011;11833;52.554;13.554;2023-05-02T05:06:47;3.20;;;2.60;;
23322;SDS011;11833;52.554;13.554;2023-05-02T05:09:13;4.35;;;2.63;;
23322;SDS011;11833;52.554;13.554;2023-05-02T05:11:39;5.20;;;3.38;;
23322;SDS011;11833;52.554;13.554;2023-05-02T05:14:07;4.13;;;2.80;;
23322;SDS011;11833;52.554;13.554;2023-05-02T05:16:33;5.03;;;2.22;;
23322;SDS011;11833;52.554;13.554;2023-05-02T05:18:59;3.70;;;2.00;;
23322;SDS011;11833;52.554;13.554;2023-05-02T05:21:25;3.78;;;2.30;;
23322;SDS011;11833;52.554;13.554;2023-05-02T05:23:51;6.13;;;2.47;;
23322;SDS011;11833;52.554;13.554;2023-05-02T05:26:17;4.22;;;2.90;;
23322;SDS011;11833;52.554;13.554;2023-05-02T05:28:43;5.95;;;2.78;;
23322;SDS011;11833;52.554;13.554;2023-05-02T05:31:12;6.07;;;2.40;;
23322;SDS011;11833;52.554;13.554;2023-05-02T05:33:41;3.53;;;2.33;;
23322;SDS011;11833;52.554;13.554;2023-05-02T05:36:08;4.18;;;2.70;;
23322;SDS011;11833;52.554;13.554;2023-05-02T05:38:36;3.65;;;2.35;;
23322;SDS011;11833;52.554;13.554;2023-05-02T05:41:02;5.10;;;2.90;;
23322;SDS011;11833;52.554;13.554;2023-05-02T05:43:32;3.08;;;2.63;;
23322;SDS011;11833;52.554;13.554;2023-05-02T05:45:59;8.40;;;3.20;;
23322;SDS011;11833;52.554;13.554;2023-05-02T05:48:25;6.03;;;3.80;;
23322;SDS011;11833;52.554;13.554;2023-05-02T05:50:51;5.30;;;2.97;;
23322;SDS011;11833;52.554;13.554;2023-05-02T05:53:17;5.82;;;2.80;;
23322;SDS011;11833;52.554;13.554;2023-05-02T05:55:43;5.20;;;2.95;;
23322;SDS011;11833;52.554;13.554;2023-05-02T05:58:09;13.05;;;3.65;;
23322;SDS011;11833;52.554;13.554;2023-05-02T06:00:36;5.68;;;3.10;;
23322;SDS011;11833;52.554;13.554;2023-05-02T06:03:03;3.28;;;2.67;;
23322;SDS011;11833;52.554;13.554;2023-05-02T06:05:30;4.22;;;2.28;;
23322;SDS011;11833;52.554;13.554;2023-05-02T06:07:56;3.13;;;2.58;;
23322;SDS011;11833;52.554;13.554;2023-05-02T06:10:22;7.95;;;3.35;;
23322;SDS011;11833;52.554;13.554;2023-05-02T06:12:48;4.55;;;2.90;;
23322;SDS011;11833;52.554;13.554;2023-05-02T06:15:14;4.25;;;2.95;;
23322;SDS011;11833;52.554;13.554;2023-05-02T06:17:40;6.07;;;3.15;;
23322;SDS011;11833;52.554;13.554;2023-05-02T06:20:06;5.10;;;3.45;;
23322;SDS011;11833;52.554;13.554;2023-05-02T06:22:33;6.32;;;3.42;;
23322;SDS011;11833;52.554;13.554;2023-05-02T06:25:00;8.07;;;4.40;;
23322;SDS011;11833;52.554;13.554;2023-05-02T06:27:26;6.60;;;2.95;;
23322;SDS011;11833;52.554;13.554;2023-05-02T06:29:52;4.40;;;3.20;;
23322;SDS011;11833;52.554;13.554;2023-05-02T06:32:18;4.93;;;3.38;;
23322;SDS011;11833;52.554;13.554;2023-05-02T06:34:44;6.07;;;3.45;;
23322;SDS011;11833;52.554;13.554;2023-05-02T06:37:09;4.13;;;3.13;;
23322;SDS011;11833;52.554;13.554;2023-05-02T06:39:35;3.17;;;2.63;;
23322;SDS011;11833;52.554;13.554;2023-05-02T06:42:01;12.05;;;4.97;;
23322;SDS011;11833;52.554;13.554;2023-05-02T06:44:27;7.13;;;4.65;;
23322;SDS011;11833;52.554;13.554;2023-05-02T06:46:53;5.60;;;3.42;;
23322;SDS011;11833;52.554;13.554;2023-05-02T06:49:20;8.85;;;4.00;;
23322;SDS011;11833;52.554;13.554;2023-05-02T06:51:46;5.65;;;3.47;;
23322;SDS011;11833;52.554;13.554;2023-05-02T06:54:12;7.15;;;3.72;;
23322;SDS011;11833;52.554;13.554;2023-05-02T06:56:39;4.72;;;2.95;;
23322;SDS011;11833;52.554;13.554;2023-05-02T06:59:06;5.45;;;2.40;;
23322;SDS011;11833;52.554;13.554;2023-05-02T07:01:32;8.30;;;3.50;;
23322;SDS011;11833;52.554;13.554;2023-05-02T07:03:57;6.20;;;4.53;;
23322;SDS011;11833;52.554;13.554;2023-05-02T07:06:23;5.97;;;3.75;;
23322;SDS011;11833;52.554;13.554;2023-05-02T07:08:49;5.55;;;3.47;;
23322;SDS011;11833;52.554;13.554;2023-05-02T07:11:14;5.75;;;3.78;;
23322;SDS011;11833;52.554;13.554;2023-05-02T07:13:40;5.00;;;2.58;;
23322;SDS011;11833;52.554;13.554;2023-05-02T07:16:07;7.03;;;4.18;;
23322;SDS011;11833;52.554;13.554;2023-05-02T07:18:32;8.07;;;3.22;;
23322;SDS011;11833;52.554;13.554;2023-05-02T07:20:58;4.45;;;2.95;;
23322;SDS011;11833;52.554;13.554;2023-05-02T07:23:25;5.93;;;3.80;;
23322;SDS011;11833;52.554;13.554;2023-05-02T07:25:51;5.65;;;3.50;;
23322;SDS011;11833;52.554;13.554;2023-05-02T07:28:17;4.50;;;3.33;;
23322;SDS011;11833;52.554;13.554;2023-05-02T07:30:42;6.05;;;3.58;;
23322;SDS011;11833;52.554;13.554;2023-05-02T07:33:08;5.18;;;3.10;;
23322;SDS011;11833;52.554;13.554;2023-05-02T07:35:34;5.38;;;3.03;;
23322;SDS011;11833;52.554;13.554;2023-05-02T07:38:00;5.18;;;2.83;;
23322;SDS011;11833;52.554;13.554;2023-05-02T07:40:25;3.67;;;2.60;;
23322;SDS011;11833;52.554;13.554;2023-05-02T07:42:52;4.85;;;2.90;;
23322;SDS011;11833;52.554;13.554;2023-05-02T07:45:18;7.60;;;2.97;;
23322;SDS011;11833;52.554;13.554;2023-05-02T07:47:44;6.28;;;2.90;;
23322;SDS011;11833;52.554;13.554;2023-05-02T07:50:10;4.85;;;3.08;;
23322;SDS011;11833;52.554;13.554;2023-05-02T07:52:36;3.67;;;2.70;;
23322;SDS011;11833;52.554;13.554;2023-05-02T07:55:02;5.00;;;3.22;;
23322;SDS011;11833;52.554;13.554;2023-05-02T07:57:32;5.47;;;3.17;;
23322;SDS011;11833;52.554;13.554;2023-05-02T07:59:57;5.07;;;2.80;;
23322;SDS011;11833;52.554;13.554;2023-05-02T08:02:23;5.68;;;3.22;;
23322;SDS011;11833;52.554;13.554;2023-05-02T08:04:50;4.28;;;3.00;;
23322;SDS011;11833;52.554;13.554;2023-05-02T08:07:16;3.90;;;2.85;;
23322;SDS011;11833;52.554;13.554;2023-05-02T08:09:41;4.57;;;2.85;;
23322;SDS011;11833;52.554;13.554;2023-05-02T08:12:07;4.90;;;2.55;;
23322;SDS011;11833;52.554;13.554;2023-05-02T08:14:33;4.07;;;2.55;;
23322;SDS011;11833;52.554;13.554;2023-05-02T08:16:59;5.80;;;3.35;;
23322;SDS011;11833;52.554;13.554;2023-05-02T08:19:25;6.72;;;3.70;;
23322;SDS011;11833;52.554;13.554;2023-05-02T08:21:54;5.03;;;3.92;;
23322;SDS011;11833;52.554;13.554;2023-05-02T08:24:20;5.85;;;3.13;;
23322;SDS011;11833;52.554;13.554;2023-05-02T08:26:46;6.03;;;3.20;;
23322;SDS011;11833;52.554;13.554;2023-05-02T08:29:13;7.43;;;3.53;;
23322;SDS011;11833;52.554;13.554;2023-05-02T08:31:39;3.70;;;3.03;;
23322;SDS011;11833;52.554;13.554;2023-05-02T08:34:05;4.53;;;2.95;;
23322;SDS011;11833;52.554;13.554;2023-05-02T08:36:32;7.07;;;3.28;;
23322;SDS011;11833;52.554;13.554;2023-05-02T08:38:57;7.53;;;3.10;;
23322;SDS011;11833;52.554;13.554;2023-05-02T08:41:23;4.25;;;2.50;;
23322;SDS011;11833;52.554;13.554;2023-05-02T08:43:50;4.85;;;2.95;;
23322;SDS011;11833;52.554;13.554;2023-05-02T08:46:17;5.10;;;2.65;;
23322;SDS011;11833;52.554;13.554;2023-05-02T08:48:46;3.33;;;2.28;;
23322;SDS011;11833;52.554;13.554;2023-05-02T08:51:15;4.60;;;2.50;;
23322;SDS011;11833;52.554;13.554;2023-05-02T08:53:42;4.95;;;2.95;;
23322;SDS011;11833;52.554;13.554;2023-05-02T08:56:09;5.57;;;2.58;;
23322;SDS011;11833;52.554;13.554;2023-05-02T08:58:36;4.38;;;2.58;;
23322;SDS011;11833;52.554;13.554;2023-05-02T09:01:14;3.28;;;2.60;;
23322;SDS011;11833;52.554;13.554;2023-05-02T09:03:44;4.75;;;2.58;;
23322;SDS011;11833;52.554;13.554;2023-05-02T09:06:14;3.83;;;2.40;;
23322;SDS011;11833;52.554;13.554;2023-05-02T09:08:42;3.85;;;2.83;;
23322;SDS011;11833;52.554;13.554;2023-05-02T09:11:10;2.95;;;2.00;;
23322;SDS011;11833;52.554;13.554;2023-05-02T09:16:16;4.60;;;2.95;;
23322;SDS011;11833;52.554;13.554;2023-05-02T09:21:25;3.45;;;2.85;;
23322;SDS011;11833;52.554;13.554;2023-05-02T09:24:14;3.85;;;2.60;;
23322;SDS011;11833;52.554;13.554;2023-05-02T09:26:43;4.82;;;2.05;;
23322;SDS011;11833;52.554;13.554;2023-05-02T09:29:29;3.17;;;2.00;;
23322;SDS011;11833;52.554;13.554;2023-05-02T09:32:03;3.95;;;2.55;;
23322;SDS011;11833;52.554;13.554;2023-05-02T09:34:30;4.07;;;2.65;;
23322;SDS011;11833;52.554;13.554;2023-05-02T09:36:57;4.75;;;2.50;;
23322;SDS011;11833;52.554;13.554;2023-05-02T09:39:27;3.60;;;2.00;;
23322;SDS011;11833;52.554;13.554;2023-05-02T09:41:53;7.72;;;3.08;;
23322;SDS011;11833;52.554;13.554;2023-05-02T09:44:22;3.03;;;2.45;;
23322;SDS011;11833;52.554;13.554;2023-05-02T09:46:52;4.00;;;1.90;;
23322;SDS011;11833;52.554;13.554;2023-05-02T09:49:39;2.45;;;2.00;;
23322;SDS011;11833;52.554;13.554;2023-05-02T09:52:12;4.10;;;2.42;;
23322;SDS011;11833;52.554;13.554;2023-05-02T09:54:43;4.55;;;2.13;;
23322;SDS011;11833;52.554;13.554;2023-05-02T09:57:16;2.10;;;1.90;;
23322;SDS011;11833;52.554;13.554;2023-05-02T09:59:52;3.05;;;2.20;;
23322;SDS011;11833;52.554;13.554;2023-05-02T10:02:23;2.28;;;1.75;;
23322;SDS011;11833;52.554;13.554;2023-05-02T10:04:50;2.20;;;1.90;;
23322;SDS011;11833;52.554;13.554;2023-05-02T10:07:21;3.17;;;2.25;;
23322;SDS011;11833;52.554;13.554;2023-05-02T10:09:47;2.35;;;1.90;;
23322;SDS011;11833;52.554;13.554;2023-05-02T10:12:15;2.67;;;1.70;;
23322;SDS011;11833;52.554;13.554;2023-05-02T10:14:48;1.30;;;1.05;;
23322;SDS011;11833;52.554;13.554;2023-05-02T10:17:20;2.58;;;1.63;;
23322;SDS011;11833;52.554;13.554;2023-05-02T10:19:55;3.25;;;1.38;;
23322;SDS011;11833;52.554;13.554;2023-05-02T10:22:35;2.03;;;1.50;;
23322;SDS011;11833;52.554;13.554;2023-05-02T10:25:02;1.50;;;1.13;;
23322;SDS011;11833;52.554;13.554;2023-05-02T10:27:28;2.53;;;1.58;;
23322;SDS011;11833;52.554;13.554;2023-05-02T10:29:57;2.67;;;1.63;;
23322;SDS011;11833;52.554;13.554;2023-05-02T10:32:26;2.88;;;1.65;;
23322;SDS011;11833;52.554;13.554;2023-05-02T10:34:53;1.75;;;1.50;;
23322;SDS011;11833;52.554;13.554;2023-05-02T10:37:22;3.33;;;1.52;;
23322;SDS011;11833;52.554;13.554;2023-05-02T10:39:50;2.80;;;1.50;;
23322;SDS011;11833;52.554;13.554;2023-05-02T10:42:16;2.55;;;1.50;;
23322;SDS011;11833;52.554;13.554;2023-05-02T10:44:44;3.17;;;1.50;;
23322;SDS011;11833;52.554;13.554;2023-05-02T10:47:24;2.67;;;1.48;;
23322;SDS011;11833;52.554;13.554;2023-05-02T10:50:00;2.92;;;1.88;;
23322;SDS011;11833;52.554;13.554;2023-05-02T10:52:31;2.63;;;1.80;;
23322;SDS011;11833;52.554;13.554;2023-05-02T11:00:41;2.08;;;1.10;;
23322;SDS011;11833;52.554;13.554;2023-05-02T11:03:06;2.10;;;1.55;;
23322;SDS011;11833;52.554;13.554;2023-05-02T11:05:32;4.28;;;1.10;;
23322;SDS011;11833;52.554;13.554;2023-05-02T11:08:31;3.40;;;1.45;;
23322;SDS011;11833;52.554;13.554;2023-05-02T11:10:57;4.03;;;2.28;;
23322;SDS011;11833;52.554;13.554;2023-05-02T11:14:08;4.55;;;1.30;;
23322;SDS011;11833;52.554;13.554;2023-05-02T11:17:35;3.63;;;1.77;;
23322;SDS011;11833;52.554;13.554;2023-05-02T11:24:47;5.30;;;2.55;;
23322;SDS011;11833;52.554;13.554;2023-05-02T11:35:18;6.28;;;1.80;;
23322;SDS011;11833;52.554;13.554;2023-05-02T11:37:52;2.22;;;1.65;;
23322;SDS011;11833;52.554;13.554;2023-05-02T11:40:26;12.52;;;3.47;;
23322;SDS011;11833;52.554;13.554;2023-05-02T11:42:52;6.72;;;3.10;;
23322;SDS011;11833;52.554;13.554;2023-05-02T11:45:18;8.75;;;2.60;;
23322;SDS011;11833;52.554;13.554;2023-05-02T11:47:46;5.75;;;2.47;;
23322;SDS011;11833;52.554;13.554;2023-05-02T11:50:13;3.20;;;1.73;;
23322;SDS011;11833;52.554;13.554;2023-05-02T11:52:40;7.78;;;2.05;;
23322;SDS011;11833;52.554;13.554;2023-05-02T11:55:09;9.60;;;2.65;;
23322;SDS011;11833;52.554;13.554;2023-05-02T11:57:38;7.28;;;2.13;;
23322;SDS011;11833;52.554;13.554;2023-05-02T12:00:04;4.18;;;2.17;;
23322;SDS011;11833;52.554;13.554;2023-05-02T12:05:08;6.95;;;2.55;;
23322;SDS011;11833;52.554;13.554;2023-05-02T12:07:40;5.13;;;1.92;;
23322;SDS011;11833;52.554;13.554;2023-05-02T12:10:11;8.07;;;2.22;;
23322;SDS011;11833;52.554;13.554;2023-05-02T12:12:38;6.75;;;2.05;;
23322;SDS011;11833;52.554;13.554;2023-05-02T12:15:07;4.53;;;2.05;;
23322;SDS011;11833;52.554;13.554;2023-05-02T12:18:08;4.72;;;1.52;;
23322;SDS011;11833;52.554;13.554;2023-05-02T12:20:27;6.10;;;1.80;;
23322;SDS011;11833;52.554;13.554;2023-05-02T12:22:53;7.57;;;1.83;;
23322;SDS011;11833;52.554;13.554;2023-05-02T12:25:19;2.97;;;1.48;;
23322;SDS011;11833;52.554;13.554;2023-05-02T12:28:01;3.25;;;1.50;;
23322;SDS011;11833;52.554;13.554;2023-05-02T12:30:28;3.28;;;1.58;;
23322;SDS011;11833;52.554;13.554;2023-05-02T12:32:58;5.70;;;1.83;;
23322;SDS011;11833;52.554;13.554;2023-05-02T12:35:26;8.30;;;1.50;;
23322;SDS011;11833;52.554;13.554;2023-05-02T12:37:53;6.80;;;1.98;;
23322;SDS011;11833;52.554;13.554;2023-05-02T12:40:22;5.13;;;1.55;;
23322;SDS011;11833;52.554;13.554;2023-05-02T12:45:30;4.22;;;1.50;;
23322;SDS011;11833;52.554;13.554;2023-05-02T12:48:02;4.88;;;1.77;;
23322;SDS011;11833;52.554;13.554;2023-05-02T12:50:50;4.22;;;1.40;;
23322;SDS011;11833;52.554;13.554;2023-05-02T12:53:17;5.25;;;1.63;;
23322;SDS011;11833;52.554;13.554;2023-05-02T12:56:09;5.65;;;2.10;;
23322;SDS011;11833;52.554;13.554;2023-05-02T12:58:45;3.90;;;1.67;;
23322;SDS011;11833;52.554;13.554;2023-05-02T13:01:12;3.97;;;1.83;;
23322;SDS011;11833;52.554;13.554;2023-05-02T13:03:39;5.47;;;1.90;;
23322;SDS011;11833;52.554;13.554;2023-05-02T13:06:06;4.50;;;1.85;;
23322;SDS011;11833;52.554;13.554;2023-05-02T13:08:32;4.70;;;1.67;;
23322;SDS011;11833;52.554;13.554;2023-05-02T13:11:00;6.53;;;2.38;;
23322;SDS011;11833;52.554;13.554;2023-05-02T13:13:27;6.05;;;1.75;;
23322;SDS011;11833;52.554;13.554;2023-05-02T13:15:54;6.07;;;2.17;;
23322;SDS011;11833;52.554;13.554;2023-05-02T13:18:20;6.57;;;2.25;;
23322;SDS011;11833;52.554;13.554;2023-05-02T13:20:46;50.95;;;4.03;;
23322;SDS011;11833;52.554;13.554;2023-05-02T13:23:11;6.57;;;2.08;;
23322;SDS011;11833;52.554;13.554;2023-05-02T13:25:37;6.95;;;1.80;;
23322;SDS011;11833;52.554;13.554;2023-05-02T13:28:03;9.18;;;2.47;;
23322;SDS011;11833;52.554;13.554;2023-05-02T13:30:30;8.88;;;2.50;;
23322;SDS011;11833;52.554;13.554;2023-05-02T13:32:56;9.38;;;1.50;;
23322;SDS011;11833;52.554;13.554;2023-05-02T13:35:22;4.45;;;2.03;;
23322;SDS011;11833;52.554;13.554;2023-05-02T13:37:49;7.25;;;2.55;;
23322;SDS011;11833;52.554;13.554;2023-05-02T13:40:15;7.78;;;1.88;;
23322;SDS011;11833;52.554;13.554;2023-05-02T13:42:41;8.98;;;2.40;;
23322;SDS011;11833;52.554;13.554;2023-05-02T13:45:07;8.65;;;2.83;;
23322;SDS011;11833;52.554;13.554;2023-05-02T13:47:33;10.95;;;2.13;;
23322;SDS011;11833;52.554;13.554;2023-05-02T13:49:59;6.85;;;3.05;;
23322;SDS011;11833;52.554;13.554;2023-05-02T13:52:25;7.47;;;2.10;;
23322;SDS011;11833;52.554;13.554;2023-05-02T13:54:51;4.38;;;1.98;;
23322;SDS011;11833;52.554;13.554;2023-05-02T13:57:16;6.65;;;2.00;;
23322;SDS011;11833;52.554;13.554;2023-05-02T13:59:42;4.97;;;2.00;;
23322;SDS011;11833;52.554;13.554;2023-05-02T14:02:08;4.40;;;2.10;;
23322;SDS011;11833;52.554;13.554;2023-05-02T14:04:34;4.18;;;1.80;;
23322;SDS011;11833;52.554;13.554;2023-05-02T14:07:00;3.92;;;1.95;;
23322;SDS011;11833;52.554;13.554;2023-05-02T14:09:26;5.93;;;1.80;;
23322;SDS011;11833;52.554;13.554;2023-05-02T14:11:52;4.55;;;1.65;;
23322;SDS011;11833;52.554;13.554;2023-05-02T14:14:17;7.35;;;1.75;;
23322;SDS011;11833;52.554;13.554;2023-05-02T14:16:43;5.03;;;1.92;;
23322;SDS011;11833;52.554;13.554;2023-05-02T14:19:12;5.68;;;2.00;;
23322;SDS011;11833;52.554;13.554;2023-05-02T14:21:37;4.53;;;1.80;;
23322;SDS011;11833;52.554;13.554;2023-05-02T14:24:04;4.57;;;1.70;;
23322;SDS011;11833;52.554;13.554;2023-05-02T14:26:30;3.45;;;1.65;;
23322;SDS011;11833;52.554;13.554;2023-05-02T14:28:57;7.78;;;2.20;;
23322;SDS011;11833;52.554;13.554;2023-05-02T14:31:23;8.43;;;2.40;;
23322;SDS011;11833;52.554;13.554;2023-05-02T14:33:51;7.80;;;1.88;;
23322;SDS011;11833;52.554;13.554;2023-05-02T14:36:17;8.88;;;2.75;;
23322;SDS011;11833;52.554;13.554;2023-05-02T14:38:43;2.95;;;1.63;;
23322;SDS011;11833;52.554;13.554;2023-05-02T14:41:09;7.70;;;2.05;;
23322;SDS011;11833;52.554;13.554;2023-05-02T14:43:35;4.25;;;1.95;;
23322;SDS011;11833;52.554;13.554;2023-05-02T14:46:01;4.95;;;1.63;;
23322;SDS011;11833;52.554;13.554;2023-05-02T14:48:27;5.40;;;1.92;;
23322;SDS011;11833;52.554;13.554;2023-05-02T14:50:53;5.20;;;1.92;;
23322;SDS011;11833;52.554;13.554;2023-05-02T14:53:20;6.97;;;1.48;;
23322;SDS011;11833;52.554;13.554;2023-05-02T14:55:46;7.43;;;2.13;;
23322;SDS011;11833;52.554;13.554;2023-05-02T14:58:12;3.08;;;1.60;;
23322;SDS011;11833;52.554;13.554;2023-05-02T15:00:44;6.00;;;2.25;;
23322;SDS011;11833;52.554;13.554;2023-05-02T15:03:10;5.50;;;1.58;;
23322;SDS011;11833;52.554;13.554;2023-05-02T15:05:36;5.80;;;1.42;;
23322;SDS011;11833;52.554;13.554;2023-05-02T15:08:02;4.22;;;1.58;;
23322;SDS011;11833;52.554;13.554;2023-05-02T15:10:28;5.53;;;1.95;;
23322;SDS011;11833;52.554;13.554;2023-05-02T15:12:53;7.50;;;1.90;;
23322;SDS011;11833;52.554;13.554;2023-05-02T15:15:19;5.35;;;1.73;;
23322;SDS011;11833;52.554;13.554;2023-05-02T15:17:49;7.32;;;2.22;;